Time;durP1;ratioP1;P1;durP2;ratioP2;P2;SDS_P1;SDS_P2;PMS_P1;PMS_P2;Temp;Humidity;BMP_temperature;BMP_pressure;BME280_temperature;BME280_humidity;BME280_pressure;Samples;Min_cycle;Max_cycle;Signal;HPM_P1;HPM_P2
2022/02/09 00:04:57;;;;;;;6.93;2.00;;;;;;;;;;6162861;23;20154;-86
2022/02/09 00:08:03;;;;;;;4.77;2.33;;;;;;;;;;6157555;23;20189;-86
2022/02/09 00:11:10;;;;;;;3.87;2.17;;;;;;;;;;6180437;23;20634;-86
2022/02/09 01:39:20;;;;;;;4.93;1.90;;;;;;;;;;6168794;23;20665;-89
2022/02/09 01:43:26;;;;;;;4.80;1.87;;;;;;;;;;6161567;23;20487;-89
2022/02/09 01:56:00;;;;;;;5.30;1.73;;;;;;;;;;6178513;23;20490;-85
2022/02/09 01:59:05;;;;;;;8.60;2.17;;;;;;;;;;6168550;23;20196;-85
2022/02/09 02:02:09;;;;;;;3.17;1.77;;;;;;;;;;6178858;23;20153;-85
2022/02/09 02:05:15;;;;;;;7.17;2.33;;;;;;;;;;6177839;23;20156;-87
2022/02/09 02:08:19;;;;;;;4.10;1.93;;;;;;;;;;6168393;23;20196;-87
2022/02/09 02:11:32;;;;;;;4.87;1.70;;;;;;;;;;6160796;23;20184;-85
2022/02/09 02:14:42;;;;;;;4.27;2.20;;;;;;;;;;6151646;23;20164;-85
2022/02/09 02:17:50;;;;;;;3.63;1.90;;;;;;;;;;6151592;23;20662;-85
2022/02/09 02:21:11;;;;;;;5.00;1.87;;;;;;;;;;6168062;23;20161;-88
2022/02/09 02:28:06;;;;;;;2.83;1.73;;;;;;;;;;6175997;23;20192;-85
2022/02/09 02:42:25;;;;;;;3.33;1.80;;;;;;;;;;6177943;23;20154;-85
2022/02/09 03:11:47;;;;;;;3.83;1.97;;;;;;;;;;6195957;23;20185;-85
2022/02/09 03:17:49;;;;;;;3.83;1.90;;;;;;;;;;6173890;23;20192;-89
2022/02/09 03:21:17;;;;;;;3.67;1.50;;;;;;;;;;6179131;23;20145;-89
2022/02/09 03:24:33;;;;;;;2.43;1.67;;;;;;;;;;6179563;23;20157;-88
2022/02/09 03:30:50;;;;;;;3.70;2.07;;;;;;;;;;6159316;23;20189;-89
2022/02/09 03:31:16;;;;;;;3.73;2.10;;;;;;;;;;6178670;23;20181;-88
2022/02/09 03:47:54;;;;;;;3.27;1.93;;;;;;;;;;6193418;23;20192;-88
2022/02/09 03:51:31;;;;;;;2.77;1.97;;;;;;;;;;6179289;23;20634;-87
2022/02/09 03:54:50;;;;;;;3.77;1.83;;;;;;;;;;6178923;23;20157;-87
2022/02/09 03:57:55;;;;;;;5.60;2.00;;;;;;;;;;6158180;23;20189;-87
2022/02/09 04:00:59;;;;;;;5.50;2.00;;;;;;;;;;6162606;23;20153;-87
2022/02/09 04:04:03;;;;;;;5.13;2.27;;;;;;;;;;6162255;23;20157;-88
2022/02/09 04:07:11;;;;;;;4.40;2.03;;;;;;;;;;6178207;23;20153;-87
2022/02/09 04:10:21;;;;;;;4.67;1.93;;;;;;;;;;6179795;23;20181;-85
2022/02/09 04:13:37;;;;;;;3.40;2.10;;;;;;;;;;6163567;23;20157;-85
2022/02/09 04:36:50;;;;;;;3.20;2.10;;;;;;;;;;6196488;23;20153;-86
2022/02/09 04:40:01;;;;;;;5.00;1.90;;;;;;;;;;6162545;23;20452;-85
2022/02/09 04:49:54;;;;;;;4.43;2.23;;;;;;;;;;6152319;23;20169;-85
2022/02/09 04:54:09;;;;;;;3.67;2.07;;;;;;;;;;6162115;23;20153;-88
2022/02/09 04:56:48;;;;;;;3.73;2.03;;;;;;;;;;6161782;23;20153;-87
2022/02/09 05:23:33;;;;;;;3.53;1.93;;;;;;;;;;6185716;23;20626;-85
2022/02/09 05:29:58;;;;;;;3.37;2.30;;;;;;;;;;6178656;23;20157;-85
2022/02/09 05:33:05;;;;;;;7.27;2.30;;;;;;;;;;6195944;23;20153;-85
2022/02/09 05:36:09;;;;;;;2.37;1.80;;;;;;;;;;6197035;23;20153;-85
2022/02/09 05:39:13;;;;;;;3.73;1.90;;;;;;;;;;6151492;23;20192;-85
2022/02/09 05:42:17;;;;;;;5.20;2.00;;;;;;;;;;6178219;23;20153;-85
2022/02/09 05:45:25;;;;;;;3.73;1.73;;;;;;;;;;6178049;23;20482;-85
2022/02/09 05:52:53;;;;;;;6.10;2.10;;;;;;;;;;6178625;23;20185;-86
2022/02/09 05:58:47;;;;;;;3.63;2.13;;;;;;;;;;6170532;23;20504;-88
2022/02/09 06:01:51;;;;;;;3.37;1.90;;;;;;;;;;6151271;23;20172;-88
2022/02/09 06:04:56;;;;;;;5.00;2.27;;;;;;;;;;6178382;23;20157;-89
2022/02/09 06:08:00;;;;;;;5.40;2.10;;;;;;;;;;6156485;23;20192;-88
2022/02/09 06:11:25;;;;;;;2.70;2.20;;;;;;;;;;6177832;23;20184;-88
2022/02/09 06:15:01;;;;;;;3.07;2.00;;;;;;;;;;6195055;23;20156;-89
2022/02/09 06:21:27;;;;;;;6.03;2.00;;;;;;;;;;6177789;23;20145;-88
2022/02/09 06:24:32;;;;;;;5.00;2.03;;;;;;;;;;6150896;23;20642;-88
2022/02/09 06:27:36;;;;;;;5.23;2.07;;;;;;;;;;6158487;23;20185;-88
2022/02/09 06:30:41;;;;;;;4.87;2.50;;;;;;;;;;6160466;23;20152;-88
2022/02/09 06:33:45;;;;;;;5.57;3.30;;;;;;;;;;6178040;23;20152;-88
2022/02/09 06:36:58;;;;;;;7.00;4.27;;;;;;;;;;6151306;23;20169;-87
2022/02/09 06:40:03;;;;;;;4.40;3.07;;;;;;;;;;6160959;23;20153;-87
2022/02/09 06:43:08;;;;;;;5.50;2.90;;;;;;;;;;6168205;23;20165;-87
2022/02/09 06:46:13;;;;;;;4.07;2.50;;;;;;;;;;6178036;23;20157;-87
2022/02/09 06:49:18;;;;;;;6.83;4.17;;;;;;;;;;6151453;23;20503;-88
2022/02/09 06:52:23;;;;;;;3.00;2.40;;;;;;;;;;6160779;23;20557;-88
2022/02/09 06:55:26;;;;;;;6.60;3.40;;;;;;;;;;6162247;23;20153;-85
2022/02/09 07:01:39;;;;;;;8.80;3.67;;;;;;;;;;6197495;23;20586;-85
2022/02/09 07:04:45;;;;;;;3.97;2.50;;;;;;;;;;6153447;23;20172;-86
2022/02/09 07:07:49;;;;;;;4.37;2.13;;;;;;;;;;6159475;23;20188;-86
2022/02/09 07:10:54;;;;;;;2.97;2.10;;;;;;;;;;6153173;23;20176;-88
2022/02/09 07:13:58;;;;;;;3.33;1.93;;;;;;;;;;6170384;23;20487;-87
2022/02/09 07:17:02;;;;;;;3.37;2.27;;;;;;;;;;6162047;23;20153;-88
2022/02/09 07:20:31;;;;;;;3.57;2.43;;;;;;;;;;6162989;23;20157;-85
2022/02/09 07:23:41;;;;;;;4.07;2.40;;;;;;;;;;6179625;23;20153;-88
2022/02/09 07:29:49;;;;;;;4.53;2.00;;;;;;;;;;6180328;23;20149;-88
2022/02/09 07:32:55;;;;;;;4.70;1.90;;;;;;;;;;6152782;23;20196;-88
2022/02/09 07:35:59;;;;;;;4.57;2.10;;;;;;;;;;6179860;23;20157;-86
2022/02/09 07:39:06;;;;;;;5.10;2.20;;;;;;;;;;6153571;23;20196;-88
2022/02/09 07:42:13;;;;;;;5.57;2.83;;;;;;;;;;6162013;23;20459;-85
2022/02/09 07:45:44;;;;;;;4.93;2.10;;;;;;;;;;6162467;23;20157;-85
2022/02/09 07:49:04;;;;;;;9.53;8.53;;;;;;;;;;6154437;23;20503;-88
2022/02/09 07:52:19;;;;;;;25.10;18.17;;;;;;;;;;6162854;23;20181;-86
2022/02/09 07:55:23;;;;;;;22.63;16.00;;;;;;;;;;6197691;23;20490;-86
2022/02/09 07:58:27;;;;;;;20.20;16.90;;;;;;;;;;6156049;23;20194;-86
2022/02/09 08:01:32;;;;;;;18.67;16.77;;;;;;;;;;6169205;23;20641;-89
2022/02/09 08:04:36;;;;;;;15.37;11.30;;;;;;;;;;6153088;23;20180;-86
2022/02/09 08:07:41;;;;;;;24.47;19.73;;;;;;;;;;6159078;23;20218;-89
2022/02/09 08:10:57;;;;;;;18.10;13.07;;;;;;;;;;6151862;23;20178;-88
2022/02/09 08:24:59;;;;;;;22.60;14.43;;;;;;;;;;6196853;23;20149;-85
2022/02/09 08:27:43;;;;;;;10.17;5.90;;;;;;;;;;6176708;23;20200;-85
2022/02/09 08:34:00;;;;;;;5.07;3.00;;;;;;;;;;6169887;23;20169;-88
2022/02/09 08:37:06;;;;;;;4.57;3.70;;;;;;;;;;6160919;23;20161;-88
2022/02/09 08:40:13;;;;;;;5.00;2.80;;;;;;;;;;6161928;23;20157;-88
2022/02/09 08:43:17;;;;;;;44.17;25.70;;;;;;;;;;6161672;23;20468;-86
2022/02/09 08:46:21;;;;;;;23.10;14.80;;;;;;;;;;6161531;23;20166;-89
2022/02/09 08:49:26;;;;;;;14.73;10.23;;;;;;;;;;6162056;23;20164;-86
2022/02/09 08:52:30;;;;;;;8.23;6.40;;;;;;;;;;6161984;23;20192;-89
2022/02/09 08:55:34;;;;;;;49.03;21.67;;;;;;;;;;6179326;23;20152;-86
2022/02/09 08:58:38;;;;;;;29.63;19.73;;;;;;;;;;6138014;23;20195;-88
2022/02/09 09:01:46;;;;;;;13.23;8.27;;;;;;;;;;6161628;23;20161;-88
2022/02/09 09:04:54;;;;;;;9.93;4.63;;;;;;;;;;6161589;23;20157;-88
2022/02/09 09:08:14;;;;;;;4.57;3.67;;;;;;;;;;6157147;23;20192;-86
2022/02/09 09:11:43;;;;;;;5.47;4.60;;;;;;;;;;6161904;23;20606;-86
2022/02/09 10:05:21;;;;;;;6.30;3.17;;;;;;;;;;6185231;23;20177;-85
2022/02/09 10:33:08;;;;;;;4.37;1.80;;;;;;;;;;6179875;23;20192;-86
2022/02/09 10:36:14;;;;;;;5.77;3.60;;;;;;;;;;6180387;23;20152;-85
2022/02/09 10:39:24;;;;;;;5.17;3.13;;;;;;;;;;6152750;23;20515;-85
2022/02/09 10:42:46;;;;;;;4.30;2.13;;;;;;;;;;6187990;23;20169;-85
2022/02/09 10:45:52;;;;;;;2.83;1.37;;;;;;;;;;6179769;23;20464;-86
2022/02/09 10:48:59;;;;;;;4.27;1.43;;;;;;;;;;6152833;23;20502;-86
2022/02/09 10:52:08;;;;;;;4.27;1.90;;;;;;;;;;6179677;23;20153;-86
2022/02/09 10:55:34;;;;;;;2.77;1.40;;;;;;;;;;6162998;23;20158;-86
2022/02/09 10:58:38;;;;;;;2.70;1.30;;;;;;;;;;6172650;23;20192;-87
2022/02/09 11:01:44;;;;;;;4.97;1.57;;;;;;;;;;6163013;23;20598;-86
2022/02/09 11:04:49;;;;;;;6.43;1.80;;;;;;;;;;6153440;23;20479;-86
2022/02/09 11:07:54;;;;;;;5.00;1.50;;;;;;;;;;6159222;23;20192;-86
2022/02/09 11:10:59;;;;;;;3.20;1.13;;;;;;;;;;6162788;23;20149;-86
2022/02/09 11:14:04;;;;;;;4.93;1.30;;;;;;;;;;6162582;23;20188;-85
2022/02/09 11:17:08;;;;;;;4.67;1.50;;;;;;;;;;6161617;23;20157;-86
2022/02/09 11:20:24;;;;;;;6.50;1.23;;;;;;;;;;6179902;23;20157;-86
2022/02/09 11:23:42;;;;;;;2.30;1.13;;;;;;;;;;6197483;23;20149;-86
2022/02/09 11:30:42;;;;;;;3.40;1.27;;;;;;;;;;6179579;23;20157;-86
2022/02/09 11:34:00;;;;;;;3.10;1.37;;;;;;;;;;6152635;23;20193;-86
2022/02/09 11:37:11;;;;;;;4.53;1.47;;;;;;;;;;6178401;23;20158;-86
2022/02/09 11:43:52;;;;;;;6.03;1.43;;;;;;;;;;6196383;23;20149;-86
2022/02/09 11:47:20;;;;;;;3.57;1.80;;;;;;;;;;6196564;23;20153;-86
2022/02/09 12:11:08;;;;;;;2.10;1.07;;;;;;;;;;6169300;23;20172;-86
2022/02/09 12:18:30;;;;;;;4.30;1.33;;;;;;;;;;6174882;23;20189;-85
2022/02/09 12:21:59;;;;;;;3.30;1.40;;;;;;;;;;6122489;23;20221;-85
2022/02/09 12:25:03;;;;;;;3.73;1.50;;;;;;;;;;6132761;23;20460;-86
2022/02/09 12:28:14;;;;;;;3.40;1.90;;;;;;;;;;6127823;23;20189;-86
2022/02/09 12:31:22;;;;;;;4.00;1.70;;;;;;;;;;6149658;23;20158;-85
2022/02/09 12:34:29;;;;;;;2.60;1.93;;;;;;;;;;6149292;23;20185;-85
2022/02/09 12:37:39;;;;;;;3.63;1.67;;;;;;;;;;6146361;23;20515;-85
2022/02/09 12:40:42;;;;;;;4.13;1.80;;;;;;;;;;6150018;23;20158;-85
2022/02/09 12:43:59;;;;;;;4.43;2.27;;;;;;;;;;6133270;23;20149;-85
2022/02/09 12:47:05;;;;;;;4.90;2.10;;;;;;;;;;6149726;23;20583;-86
2022/02/09 12:50:24;;;;;;;2.37;1.70;;;;;;;;;;6149379;23;20157;-85
2022/02/09 12:53:31;;;;;;;4.40;1.70;;;;;;;;;;6149339;23;20622;-85
2022/02/09 12:56:38;;;;;;;3.53;2.00;;;;;;;;;;6132644;23;20158;-85
2022/02/09 12:59:42;;;;;;;5.37;1.77;;;;;;;;;;6150069;23;20153;-85
2022/02/09 13:02:47;;;;;;;3.53;1.60;;;;;;;;;;6133071;23;20153;-85
2022/02/09 13:05:53;;;;;;;3.97;1.87;;;;;;;;;;6149493;23;20153;-85
2022/02/09 13:08:57;;;;;;;2.73;1.60;;;;;;;;;;6124440;23;20642;-86
2022/02/09 13:12:02;;;;;;;4.60;2.00;;;;;;;;;;6166773;23;20587;-86
2022/02/09 13:15:21;;;;;;;4.37;2.00;;;;;;;;;;6132638;23;20212;-86
2022/02/09 14:03:40;;;;;;;4.73;1.70;;;;;;;;;;6148905;23;20173;-85
2022/02/09 14:10:43;;;;;;;6.80;1.50;;;;;;;;;;6132361;23;20449;-85
2022/02/09 14:23:59;;;;;;;4.47;1.60;;;;;;;;;;6148473;23;20153;-86
2022/02/09 14:51:19;;;;;;;5.33;1.67;;;;;;;;;;6121496;23;20170;-87
2022/02/09 14:57:10;;;;;;;4.83;1.40;;;;;;;;;;6130257;23;20476;-86
2022/02/09 15:00:20;;;;;;;5.93;1.20;;;;;;;;;;6148286;23;20154;-86
2022/02/09 15:10:09;;;;;;;3.10;1.30;;;;;;;;;;6131527;23;20588;-87
2022/02/09 15:13:40;;;;;;;5.53;1.80;;;;;;;;;;6130833;23;20154;-87
2022/02/09 15:20:15;;;;;;;4.00;1.43;;;;;;;;;;6123891;23;20170;-87
2022/02/09 15:23:22;;;;;;;4.37;1.50;;;;;;;;;;6132741;23;20157;-87
2022/02/09 15:26:26;;;;;;;2.90;1.43;;;;;;;;;;6157061;23;20173;-87
2022/02/09 15:29:30;;;;;;;3.73;1.50;;;;;;;;;;6133713;23;20157;-87
2022/02/09 15:32:40;;;;;;;2.00;1.40;;;;;;;;;;6123186;23;20173;-87
2022/02/09 15:35:44;;;;;;;3.67;1.80;;;;;;;;;;6150546;23;20157;-88
2022/02/09 15:38:48;;;;;;;2.30;1.77;;;;;;;;;;6108241;23;20201;-87
2022/02/09 15:42:07;;;;;;;2.90;1.53;;;;;;;;;;6133131;23;20162;-86
2022/02/09 16:05:43;;;;;;;4.53;1.50;;;;;;;;;;6132383;23;20154;-87
2022/02/09 16:25:31;;;;;;;2.20;1.20;;;;;;;;;;6131775;23;20150;-88
2022/02/09 16:44:54;;;;;;;2.77;1.20;;;;;;;;;;6148805;23;20150;-88
2022/02/09 16:48:01;;;;;;;1.87;0.90;;;;;;;;;;6144492;23;20189;-88
2022/02/09 16:51:12;;;;;;;2.27;1.10;;;;;;;;;;6155734;23;20173;-88
2022/02/09 16:54:36;;;;;;;1.20;1.00;;;;;;;;;;6133001;23;20181;-88
2022/02/09 17:21:22;;;;;;;2.00;1.17;;;;;;;;;;6131676;23;20150;-85
2022/02/09 17:24:27;;;;;;;1.60;1.00;;;;;;;;;;6139086;23;20173;-85
2022/02/09 17:27:31;;;;;;;1.97;1.00;;;;;;;;;;6129669;23;20193;-86
2022/02/09 17:53:32;;;;;;;1.70;1.10;;;;;;;;;;6149304;23;20158;-85
2022/02/09 17:56:47;;;;;;;2.20;1.17;;;;;;;;;;6132330;23;20600;-85
2022/02/09 18:03:15;;;;;;;1.80;1.30;;;;;;;;;;6132478;23;20158;-85
2022/02/09 18:06:22;;;;;;;2.03;0.97;;;;;;;;;;6150511;23;20150;-86
2022/02/09 18:09:33;;;;;;;2.60;0.93;;;;;;;;;;6132884;23;20161;-85
2022/02/09 18:13:00;;;;;;;2.23;1.30;;;;;;;;;;6149610;23;20158;-85
2022/02/09 18:32:55;;;;;;;2.30;1.50;;;;;;;;;;6132604;23;20158;-85
2022/02/09 18:59:34;;;;;;;2.77;1.70;;;;;;;;;;6136041;23;20158;-85
2022/02/09 19:06:17;;;;;;;4.17;1.60;;;;;;;;;;6137117;23;20178;-86
2022/02/09 19:16:26;;;;;;;2.63;1.40;;;;;;;;;;6153753;23;20186;-84
2022/02/09 19:26:26;;;;;;;3.00;1.57;;;;;;;;;;6138596;23;20154;-86
2022/02/09 19:30:32;;;;;;;1.83;1.47;;;;;;;;;;6151773;23;20158;-88
2022/02/09 19:55:41;;;;;;;2.70;1.60;;;;;;;;;;6119791;23;20558;-88
2022/02/09 19:58:54;;;;;;;2.77;2.00;;;;;;;;;;6110208;23;20901;-88
2022/02/09 20:01:58;;;;;;;4.00;2.30;;;;;;;;;;6086712;23;20518;-87
2022/02/09 20:05:04;;;;;;;4.47;2.00;;;;;;;;;;6103867;23;20525;-87
2022/02/09 20:08:07;;;;;;;5.07;2.20;;;;;;;;;;6078042;23;20585;-88
2022/02/09 20:11:15;;;;;;;5.23;2.40;;;;;;;;;;6087220;23;20506;-87
2022/02/09 20:14:19;;;;;;;5.43;2.70;;;;;;;;;;6103475;23;20518;-88
2022/02/09 20:17:23;;;;;;;7.87;3.30;;;;;;;;;;6101149;23;20569;-87
2022/02/09 20:20:28;;;;;;;5.57;3.10;;;;;;;;;;6103508;23;20825;-87
2022/02/09 20:23:34;;;;;;;4.37;2.90;;;;;;;;;;6119522;23;20518;-88
2022/02/09 20:26:38;;;;;;;4.43;2.70;;;;;;;;;;6102659;23;20510;-87
2022/02/09 20:29:42;;;;;;;5.70;2.50;;;;;;;;;;6119889;23;20514;-87
2022/02/09 20:32:54;;;;;;;3.47;2.43;;;;;;;;;;6102999;23;20518;-88
2022/02/09 20:35:59;;;;;;;3.27;2.47;;;;;;;;;;6102868;23;20881;-88
2022/02/09 20:39:06;;;;;;;3.03;2.20;;;;;;;;;;6090700;23;21153;-87
2022/02/09 20:42:15;;;;;;;3.17;2.17;;;;;;;;;;6136847;23;20503;-87
2022/02/09 20:48:28;;;;;;;6.33;2.70;;;;;;;;;;6109586;23;21158;-87
2022/02/09 20:51:31;;;;;;;2.10;1.90;;;;;;;;;;6136355;23;21047;-87
2022/02/09 20:54:36;;;;;;;2.70;2.00;;;;;;;;;;6143336;23;20553;-88
2022/02/09 20:57:41;;;;;;;3.67;2.40;;;;;;;;;;6109911;23;20574;-87
2022/02/09 21:03:58;;;;;;;3.20;1.73;;;;;;;;;;6119443;23;20514;-87
2022/02/09 21:10:25;;;;;;;3.03;1.80;;;;;;;;;;6118918;23;20514;-87
2022/02/09 21:14:00;;;;;;;5.03;1.90;;;;;;;;;;6152797;23;20507;-87
2022/02/09 21:20:56;;;;;;;3.53;2.30;;;;;;;;;;6120419;23;20518;-84
2022/02/09 21:24:17;;;;;;;2.07;1.60;;;;;;;;;;6137014;23;20506;-84
2022/02/09 21:53:51;;;;;;;4.10;2.20;;;;;;;;;;6132059;23;20513;-86
2022/02/09 21:57:01;;;;;;;3.33;2.43;;;;;;;;;;6132261;23;20557;-87
2022/02/09 22:20:16;;;;;;;3.53;2.43;;;;;;;;;;6131120;23;20514;-86
2022/02/09 22:56:10;;;;;;;4.87;3.50;;;;;;;;;;6121705;23;20570;-87
2022/02/09 22:59:22;;;;;;;6.40;4.07;;;;;;;;;;6096023;23;20877;-86
2022/02/09 23:02:33;;;;;;;8.57;3.23;;;;;;;;;;6105319;23;20502;-86
2022/02/09 23:09:27;;;;;;;4.23;2.80;;;;;;;;;;6097115;23;20577;-86
2022/02/09 23:12:39;;;;;;;6.00;3.63;;;;;;;;;;6105135;23;20514;-87
2022/02/09 23:16:53;;;;;;;4.47;2.90;;;;;;;;;;6138811;23;20519;-87
2022/02/09 23:26:28;;;;;;;7.10;3.60;;;;;;;;;;6095474;23;20557;-87
2022/02/09 23:56:19;;;;;;;6.63;3.60;;;;;;;;;;6136789;23;20514;-87
